sensor_id;sensor_type;location;lat;lon;timestamp;pressure;altitude;pressure_sealevel;temperature;humidity
11682;BME280;5897;42.640;23.310;2023-04-26T00:01:24;92995.41;;;10.39;100.00
11682;BME280;5897;42.640;23.310;2023-04-26T00:03:51;92991.50;;;10.31;100.00
11682;BME280;5897;42.640;23.310;2023-04-26T00:06:20;92989.53;;;10.22;100.00
11682;BME280;5897;42.640;23.310;2023-04-26T00:08:48;92988.28;;;10.05;100.00
11682;BME280;5897;42.640;23.310;2023-04-26T00:11:15;92982.38;;;9.67;100.00
11682;BME280;5897;42.640;23.310;2023-04-26T00:13:42;92982.34;;;9.28;100.00
11682;BME280;5897;42.640;23.310;2023-04-26T00:16:09;92971.56;;;9.28;100.00
11682;BME280;5897;42.640;23.310;2023-04-26T00:18:35;92973.69;;;9.33;100.00
11682;BME280;5897;42.640;23.310;2023-04-26T00:21:02;92965.69;;;8.99;100.00
11682;BME280;5897;42.640;23.310;2023-04-26T00:23:29;92962.53;;;8.79;100.00
11682;BME280;5897;42.640;23.310;2023-04-26T00:25:57;92968.03;;;8.75;100.00
11682;BME280;5897;42.640;23.310;2023-04-26T00:28:27;92969.28;;;8.83;100.00
11682;BME280;5897;42.640;23.310;2023-04-26T00:30:54;92962.66;;;8.97;100.00
11682;BME280;5897;42.640;23.310;2023-04-26T00:33:22;92962.41;;;9.04;100.00
11682;BME280;5897;42.640;23.310;2023-04-26T00:35:49;92958.63;;;8.80;100.00
11682;BME280;5897;42.640;23.310;2023-04-26T00:38:15;92950.63;;;8.89;100.00
11682;BME280;5897;42.640;23.310;2023-04-26T00:40:42;92952.53;;;8.79;100.00
11682;BME280;5897;42.640;23.310;2023-04-26T00:43:10;92946.13;;;8.86;100.00
11682;BME280;5897;42.640;23.310;2023-04-26T00:45:37;92946.88;;;8.86;100.00
11682;BME280;5897;42.640;23.310;2023-04-26T00:48:04;92952.69;;;8.85;100.00
11682;BME280;5897;42.640;23.310;2023-04-26T00:50:31;92955.94;;;8.80;100.00
11682;BME280;5897;42.640;23.310;2023-04-26T00:53:00;92958.25;;;8.69;100.00
11682;BME280;5897;42.640;23.310;2023-04-26T00:55:28;92940.47;;;8.71;100.00
11682;BME280;5897;42.640;23.310;2023-04-26T00:57:54;92950.84;;;8.60;100.00
11682;BME280;5897;42.640;23.310;2023-04-26T01:00:23;92953.88;;;8.62;100.00
11682;BME280;5897;42.640;23.310;2023-04-26T01:02:50;92947.75;;;8.62;100.00
11682;BME280;5897;42.640;23.310;2023-04-26T01:05:17;92959.97;;;8.41;100.00
11682;BME280;5897;42.640;23.310;2023-04-26T01:07:44;92966.00;;;8.45;100.00
11682;BME280;5897;42.640;23.310;2023-04-26T01:10:11;92964.94;;;8.43;100.00
11682;BME280;5897;42.640;23.310;2023-04-26T01:12:38;92959.34;;;8.37;100.00
11682;BME280;5897;42.640;23.310;2023-04-26T01:15:06;92962.34;;;8.39;100.00
11682;BME280;5897;42.640;23.310;2023-04-26T01:17:34;92962.84;;;8.47;100.00
11682;BME280;5897;42.640;23.310;2023-04-26T01:20:02;92952.72;;;8.51;100.00
11682;BME280;5897;42.640;23.310;2023-04-26T01:22:33;92949.06;;;8.57;100.00
11682;BME280;5897;42.640;23.310;2023-04-26T01:25:01;92946.97;;;8.61;100.00
11682;BME280;5897;42.640;23.310;2023-04-26T01:27:32;92947.56;;;8.56;100.00
11682;BME280;5897;42.640;23.310;2023-04-26T01:29:58;92938.19;;;8.48;100.00
11682;BME280;5897;42.640;23.310;2023-04-26T01:32:25;92939.69;;;8.49;100.00
11682;BME280;5897;42.640;23.310;2023-04-26T01:34:52;92951.81;;;8.32;100.00
11682;BME280;5897;42.640;23.310;2023-04-26T01:37:19;92956.31;;;8.48;100.00
11682;BME280;5897;42.640;23.310;2023-04-26T01:39:47;92954.03;;;8.46;100.00
11682;BME280;5897;42.640;23.310;2023-04-26T01:42:13;92955.97;;;8.46;100.00
11682;BME280;5897;42.640;23.310;2023-04-26T01:44:40;92952.72;;;8.51;100.00
11682;BME280;5897;42.640;23.310;2023-04-26T01:47:07;92961.63;;;8.60;100.00
11682;BME280;5897;42.640;23.310;2023-04-26T01:49:34;92962.56;;;8.66;100.00
11682;BME280;5897;42.640;23.310;2023-04-26T01:52:01;92950.31;;;8.65;100.00
11682;BME280;5897;42.640;23.310;2023-04-26T01:54:27;92958.13;;;8.72;100.00
11682;BME280;5897;42.640;23.310;2023-04-26T01:56:55;92947.69;;;8.74;100.00
11682;BME280;5897;42.640;23.310;2023-04-26T01:59:22;92947.56;;;8.78;100.00
11682;BME280;5897;42.640;23.310;2023-04-26T02:01:49;92948.19;;;8.82;100.00
11682;BME280;5897;42.640;23.310;2023-04-26T02:04:16;92945.44;;;8.73;100.00
11682;BME280;5897;42.640;23.310;2023-04-26T02:06:42;92939.16;;;8.76;100.00
11682;BME280;5897;42.640;23.310;2023-04-26T02:09:09;92941.13;;;8.75;100.00
11682;BME280;5897;42.640;23.310;2023-04-26T02:11:36;92943.50;;;8.73;100.00
11682;BME280;5897;42.640;23.310;2023-04-26T02:14:05;92939.91;;;8.76;100.00
11682;BME280;5897;42.640;23.310;2023-04-26T02:16:31;92925.81;;;8.51;100.00
11682;BME280;5897;42.640;23.310;2023-04-26T02:18:58;92925.16;;;8.47;100.00
11682;BME280;5897;42.640;23.310;2023-04-26T02:21:25;92920.81;;;8.40;100.00
11682;BME280;5897;42.640;23.310;2023-04-26T02:23:52;92934.25;;;8.40;100.00
11682;BME280;5897;42.640;23.310;2023-04-26T02:26:19;92932.31;;;8.41;100.00
11682;BME280;5897;42.640;23.310;2023-04-26T02:28:46;92930.75;;;8.18;100.00
11682;BME280;5897;42.640;23.310;2023-04-26T02:31:14;92929.53;;;8.19;100.00
11682;BME280;5897;42.640;23.310;2023-04-26T02:33:41;92933.84;;;8.29;100.00
11682;BME280;5897;42.640;23.310;2023-04-26T02:36:08;92930.06;;;8.39;100.00
11682;BME280;5897;42.640;23.310;2023-04-26T02:38:35;92934.19;;;8.53;100.00
11682;BME280;5897;42.640;23.310;2023-04-26T02:41:03;92916.13;;;8.53;100.00
11682;BME280;5897;42.640;23.310;2023-04-26T02:43:30;92930.91;;;8.70;100.00
11682;BME280;5897;42.640;23.310;2023-04-26T02:45:56;92925.69;;;8.76;100.00
11682;BME280;5897;42.640;23.310;2023-04-26T02:48:26;92923.50;;;8.83;100.00
11682;BME280;5897;42.640;23.310;2023-04-26T02:50:53;92923.16;;;8.94;100.00
11682;BME280;5897;42.640;23.310;2023-04-26T02:53:21;92915.81;;;8.94;100.00
11682;BME280;5897;42.640;23.310;2023-04-26T02:55:48;92918.06;;;8.96;100.00
11682;BME280;5897;42.640;23.310;2023-04-26T02:58:15;92916.94;;;9.06;100.00
11682;BME280;5897;42.640;23.310;2023-04-26T03:00:45;92927.84;;;9.02;100.00
11682;BME280;5897;42.640;23.310;2023-04-26T03:03:12;92925.56;;;9.01;100.00
11682;BME280;5897;42.640;23.310;2023-04-26T03:05:40;92920.13;;;8.92;100.00
11682;BME280;5897;42.640;23.310;2023-04-26T03:08:07;92921.56;;;9.05;100.00
11682;BME280;5897;42.640;23.310;2023-04-26T03:10:35;92911.28;;;9.13;100.00
11682;BME280;5897;42.640;23.310;2023-04-26T03:13:02;92914.13;;;9.18;100.00
11682;BME280;5897;42.640;23.310;2023-04-26T03:15:29;92907.88;;;9.21;100.00
11682;BME280;5897;42.640;23.310;2023-04-26T03:17:56;92911.81;;;9.29;100.00
11682;BME280;5897;42.640;23.310;2023-04-26T03:20:23;92905.53;;;9.32;100.00
11682;BME280;5897;42.640;23.310;2023-04-26T03:22:51;92911.72;;;9.42;100.00
11682;BME280;5897;42.640;23.310;2023-04-26T03:25:18;92916.03;;;9.39;100.00
11682;BME280;5897;42.640;23.310;2023-04-26T03:27:45;92913.34;;;9.39;100.00
11682;BME280;5897;42.640;23.310;2023-04-26T03:30:12;92918.44;;;9.37;100.00
11682;BME280;5897;42.640;23.310;2023-04-26T03:32:39;92919.81;;;9.42;100.00
11682;BME280;5897;42.640;23.310;2023-04-26T03:35:06;92916.69;;;9.43;100.00
11682;BME280;5897;42.640;23.310;2023-04-26T03:37:34;92925.38;;;9.47;100.00
11682;BME280;5897;42.640;23.310;2023-04-26T03:40:06;92923.16;;;9.55;100.00
11682;BME280;5897;42.640;23.310;2023-04-26T03:42:34;92921.50;;;9.48;100.00
11682;BME280;5897;42.640;23.310;2023-04-26T03:45:01;92934.41;;;9.53;100.00
11682;BME280;5897;42.640;23.310;2023-04-26T03:47:28;92925.97;;;9.51;100.00
11682;BME280;5897;42.640;23.310;2023-04-26T03:49:56;92930.09;;;9.65;100.00
11682;BME280;5897;42.640;23.310;2023-04-26T03:52:22;92929.34;;;9.64;100.00
11682;BME280;5897;42.640;23.310;2023-04-26T03:54:49;92917.25;;;9.78;100.00
11682;BME280;5897;42.640;23.310;2023-04-26T03:57:18;92919.84;;;9.90;100.00
11682;BME280;5897;42.640;23.310;2023-04-26T03:59:44;92919.84;;;9.90;100.00
11682;BME280;5897;42.640;23.310;2023-04-26T04:02:11;92919.69;;;9.94;100.00
11682;BME280;5897;42.640;23.310;2023-04-26T04:04:38;92939.97;;;9.98;100.00
11682;BME280;5897;42.640;23.310;2023-04-26T04:07:05;92928.25;;;10.01;100.00
11682;BME280;5897;42.640;23.310;2023-04-26T04:09:32;92948.94;;;9.95;100.00
11682;BME280;5897;42.640;23.310;2023-04-26T04:11:58;92950.44;;;9.96;100.00
11682;BME280;5897;42.640;23.310;2023-04-26T04:14:26;92944.13;;;9.90;100.00
11682;BME280;5897;42.640;23.310;2023-04-26T04:16:53;92942.34;;;9.96;100.00
11682;BME280;5897;42.640;23.310;2023-04-26T04:19:20;92948.66;;;10.02;100.00
11682;BME280;5897;42.640;23.310;2023-04-26T04:21:47;92944.75;;;10.03;100.00
11682;BME280;5897;42.640;23.310;2023-04-26T04:24:14;92945.38;;;10.07;100.00
11682;BME280;5897;42.640;23.310;2023-04-26T04:26:40;92940.75;;;10.08;100.00
11682;BME280;5897;42.640;23.310;2023-04-26T04:29:07;92952.75;;;10.16;100.00
11682;BME280;5897;42.640;23.310;2023-04-26T04:31:36;92959.84;;;10.22;100.00
11682;BME280;5897;42.640;23.310;2023-04-26T04:34:04;92949.03;;;10.22;100.00
11682;BME280;5897;42.640;23.310;2023-04-26T04:36:31;92940.94;;;10.22;100.00
11682;BME280;5897;42.640;23.310;2023-04-26T04:38:58;92972.16;;;10.41;100.00
11682;BME280;5897;42.640;23.310;2023-04-26T04:41:24;92960.16;;;10.42;100.00
11682;BME280;5897;42.640;23.310;2023-04-26T04:43:52;92959.84;;;10.31;100.00
11682;BME280;5897;42.640;23.310;2023-04-26T04:46:19;92955.19;;;10.41;100.00
11682;BME280;5897;42.640;23.310;2023-04-26T04:48:47;92964.97;;;10.38;100.00
11682;BME280;5897;42.640;23.310;2023-04-26T04:51:14;92956.72;;;10.42;100.00
11682;BME280;5897;42.640;23.310;2023-04-26T04:53:41;92967.66;;;10.47;100.00
11682;BME280;5897;42.640;23.310;2023-04-26T04:56:08;92967.69;;;10.56;100.00
11682;BME280;5897;42.640;23.310;2023-04-26T04:58:35;92960.91;;;10.52;100.00
11682;BME280;5897;42.640;23.310;2023-04-26T05:01:01;92961.38;;;10.50;100.00
11682;BME280;5897;42.640;23.310;2023-04-26T05:03:28;92966.63;;;10.54;100.00
11682;BME280;5897;42.640;23.310;2023-04-26T05:05:57;92964.22;;;10.56;100.00
11682;BME280;5897;42.640;23.310;2023-04-26T05:08:24;92965.88;;;10.53;100.00
11682;BME280;5897;42.640;23.310;2023-04-26T05:10:51;92956.88;;;10.65;100.00
11682;BME280;5897;42.640;23.310;2023-04-26T05:13:18;92966.94;;;10.65;100.00
11682;BME280;5897;42.640;23.310;2023-04-26T05:15:45;92967.53;;;10.78;100.00
11682;BME280;5897;42.640;23.310;2023-04-26T05:18:12;92969.78;;;10.88;100.00
11682;BME280;5897;42.640;23.310;2023-04-26T05:20:38;92966.19;;;10.91;100.00
11682;BME280;5897;42.640;23.310;2023-04-26T05:23:07;92962.59;;;10.94;100.00
11682;BME280;5897;42.640;23.310;2023-04-26T05:25:36;92971.31;;;11.07;100.00
11682;BME280;5897;42.640;23.310;2023-04-26T05:28:02;92973.53;;;11.18;100.00
11682;BME280;5897;42.640;23.310;2023-04-26T05:30:29;92977.56;;;11.31;100.00
11682;BME280;5897;42.640;23.310;2023-04-26T05:32:56;92978.19;;;11.35;100.00
11682;BME280;5897;42.640;23.310;2023-04-26T05:35:23;92976.66;;;11.43;100.00
11682;BME280;5897;42.640;23.310;2023-04-26T05:37:50;92978.13;;;11.53;100.00
11682;BME280;5897;42.640;23.310;2023-04-26T05:40:18;92976.63;;;11.61;100.00
11682;BME280;5897;42.640;23.310;2023-04-26T05:42:45;92987.59;;;11.67;100.00
11682;BME280;5897;42.640;23.310;2023-04-26T05:45:12;92987.41;;;11.79;100.00
11682;BME280;5897;42.640;23.310;2023-04-26T05:47:39;92986.78;;;11.84;100.00
11682;BME280;5897;42.640;23.310;2023-04-26T05:50:07;92994.13;;;11.93;99.64
11682;BME280;5897;42.640;23.310;2023-04-26T05:52:36;92993.50;;;11.98;97.75
11682;BME280;5897;42.640;23.310;2023-04-26T05:55:03;92994.22;;;12.07;97.44
11682;BME280;5897;42.640;23.310;2023-04-26T05:57:31;92999.94;;;12.09;96.34
11682;BME280;5897;42.640;23.310;2023-04-26T05:59:58;92998.13;;;12.15;96.20
11682;BME280;5897;42.640;23.310;2023-04-26T06:02:25;92995.22;;;12.18;95.52
11682;BME280;5897;42.640;23.310;2023-04-26T06:04:52;92991.28;;;12.28;95.04
11682;BME280;5897;42.640;23.310;2023-04-26T06:07:19;92990.69;;;12.48;94.56
11682;BME280;5897;42.640;23.310;2023-04-26T06:09:46;93002.78;;;12.70;94.38
11682;BME280;5897;42.640;23.310;2023-04-26T06:12:13;93001.63;;;12.86;93.85
11682;BME280;5897;42.640;23.310;2023-04-26T06:14:41;92991.16;;;12.93;89.59
11682;BME280;5897;42.640;23.310;2023-04-26T06:17:07;92992.44;;;12.83;88.70
11682;BME280;5897;42.640;23.310;2023-04-26T06:19:35;93003.91;;;12.78;88.20
11682;BME280;5897;42.640;23.310;2023-04-26T06:22:01;92999.94;;;12.41;81.51
11682;BME280;5897;42.640;23.310;2023-04-26T06:24:29;93001.47;;;12.33;82.73
11682;BME280;5897;42.640;23.310;2023-04-26T06:26:56;93005.34;;;12.41;83.36
11682;BME280;5897;42.640;23.310;2023-04-26T06:29:22;93007.66;;;12.25;79.10
11682;BME280;5897;42.640;23.310;2023-04-26T06:31:50;93009.25;;;12.08;80.37
11682;BME280;5897;42.640;23.310;2023-04-26T06:34:17;93005.03;;;12.07;81.35
11682;BME280;5897;42.640;23.310;2023-04-26T06:36:45;93007.03;;;12.07;80.73
11682;BME280;5897;42.640;23.310;2023-04-26T06:39:11;93008.53;;;11.98;80.26
11682;BME280;5897;42.640;23.310;2023-04-26T06:41:38;93011.59;;;11.82;79.65
11682;BME280;5897;42.640;23.310;2023-04-26T06:44:05;93014.94;;;11.78;81.97
11682;BME280;5897;42.640;23.310;2023-04-26T06:46:32;93016.56;;;11.84;81.48
11682;BME280;5897;42.640;23.310;2023-04-26T06:49:00;93010.53;;;11.89;81.95
11682;BME280;5897;42.640;23.310;2023-04-26T06:51:27;93012.97;;;11.78;82.04
11682;BME280;5897;42.640;23.310;2023-04-26T06:53:54;93012.84;;;11.73;81.44
11682;BME280;5897;42.640;23.310;2023-04-26T06:56:23;93012.13;;;11.63;79.92
11682;BME280;5897;42.640;23.310;2023-04-26T06:59:00;93003.13;;;11.30;80.00
11682;BME280;5897;42.640;23.310;2023-04-26T07:01:27;93018.44;;;11.42;78.21
11682;BME280;5897;42.640;23.310;2023-04-26T07:03:58;93021.25;;;11.48;78.05
11682;BME280;5897;42.640;23.310;2023-04-26T07:06:27;93016.31;;;11.28;79.13
11682;BME280;5897;42.640;23.310;2023-04-26T07:08:54;93022.78;;;11.31;82.55
11682;BME280;5897;42.640;23.310;2023-04-26T07:11:21;93012.84;;;11.55;81.65
11682;BME280;5897;42.640;23.310;2023-04-26T07:13:47;93017.94;;;11.80;81.99
11682;BME280;5897;42.640;23.310;2023-04-26T07:16:15;93013.66;;;11.97;74.42
11682;BME280;5897;42.640;23.310;2023-04-26T07:18:41;93013.22;;;12.30;76.65
11682;BME280;5897;42.640;23.310;2023-04-26T07:21:08;93006.56;;;12.64;73.46
11682;BME280;5897;42.640;23.310;2023-04-26T07:23:37;93009.47;;;12.84;71.16
11682;BME280;5897;42.640;23.310;2023-04-26T07:26:03;93007.84;;;12.77;64.23
11682;BME280;5897;42.640;23.310;2023-04-26T07:28:30;93004.41;;;12.77;64.22
11682;BME280;5897;42.640;23.310;2023-04-26T07:30:57;93005.34;;;12.88;63.52
11682;BME280;5897;42.640;23.310;2023-04-26T07:33:24;93005.78;;;12.96;62.22
11682;BME280;5897;42.640;23.310;2023-04-26T07:35:55;93018.56;;;13.19;63.53
11682;BME280;5897;42.640;23.310;2023-04-26T07:38:22;93014.75;;;13.25;64.08
11682;BME280;5897;42.640;23.310;2023-04-26T07:40:51;93009.88;;;13.29;62.87
11682;BME280;5897;42.640;23.310;2023-04-26T07:43:18;93018.72;;;13.01;64.02
11682;BME280;5897;42.640;23.310;2023-04-26T07:45:45;93029.66;;;12.83;64.84
11682;BME280;5897;42.640;23.310;2023-04-26T07:48:13;93025.09;;;12.65;62.20
11682;BME280;5897;42.640;23.310;2023-04-26T07:50:40;93030.69;;;12.29;64.94
11682;BME280;5897;42.640;23.310;2023-04-26T07:53:06;93026.88;;;12.36;64.69
11682;BME280;5897;42.640;23.310;2023-04-26T07:55:33;93034.19;;;12.21;65.90
11682;BME280;5897;42.640;23.310;2023-04-26T07:58:03;93033.84;;;12.28;67.98
11682;BME280;5897;42.640;23.310;2023-04-26T08:00:30;93034.59;;;12.61;66.34
11682;BME280;5897;42.640;23.310;2023-04-26T08:02:57;93041.50;;;12.62;64.78
11682;BME280;5897;42.640;23.310;2023-04-26T08:05:23;93025.09;;;12.65;65.29
11682;BME280;5897;42.640;23.310;2023-04-26T08:07:51;93038.28;;;12.72;63.58
11682;BME280;5897;42.640;23.310;2023-04-26T08:10:18;93035.25;;;12.79;64.35
11682;BME280;5897;42.640;23.310;2023-04-26T08:12:45;93039.91;;;12.79;63.69
11682;BME280;5897;42.640;23.310;2023-04-26T08:15:13;93034.91;;;12.86;65.82
11682;BME280;5897;42.640;23.310;2023-04-26T08:17:40;93040.94;;;12.81;65.41
11682;BME280;5897;42.640;23.310;2023-04-26T08:20:07;93043.66;;;13.05;66.46
11682;BME280;5897;42.640;23.310;2023-04-26T08:22:34;93047.09;;;12.82;64.26
11682;BME280;5897;42.640;23.310;2023-04-26T08:25:01;93044.41;;;12.82;63.77
11682;BME280;5897;42.640;23.310;2023-04-26T08:27:29;93044.91;;;12.71;66.95
11682;BME280;5897;42.640;23.310;2023-04-26T08:29:56;93050.41;;;12.86;65.78
11682;BME280;5897;42.640;23.310;2023-04-26T08:32:24;93044.91;;;12.71;64.22
11682;BME280;5897;42.640;23.310;2023-04-26T08:34:51;93042.78;;;12.75;67.08
11682;BME280;5897;42.640;23.310;2023-04-26T08:37:18;93035.81;;;12.83;63.13
11682;BME280;5897;42.640;23.310;2023-04-26T08:39:45;93032.63;;;12.85;64.19
11682;BME280;5897;42.640;23.310;2023-04-26T08:42:13;93012.69;;;12.73;64.75
11682;BME280;5897;42.640;23.310;2023-04-26T08:44:41;93056.31;;;13.08;63.31
11682;BME280;5897;42.640;23.310;2023-04-26T08:47:13;93048.88;;;12.94;61.18
11682;BME280;5897;42.640;23.310;2023-04-26T08:49:44;93056.53;;;12.95;62.19
11682;BME280;5897;42.640;23.310;2023-04-26T08:52:13;93053.09;;;12.86;61.79
11682;BME280;5897;42.640;23.310;2023-04-26T08:54:41;93047.34;;;12.93;63.40
11682;BME280;5897;42.640;23.310;2023-04-26T08:57:09;93048.22;;;12.99;62.28
11682;BME280;5897;42.640;23.310;2023-04-26T08:59:36;93061.25;;;12.86;62.21
11682;BME280;5897;42.640;23.310;2023-04-26T09:02:04;93036.97;;;12.68;62.75
11682;BME280;5897;42.640;23.310;2023-04-26T09:04:32;93053.91;;;12.77;66.06
11682;BME280;5897;42.640;23.310;2023-04-26T09:07:01;93050.66;;;12.97;65.05
11682;BME280;5897;42.640;23.310;2023-04-26T09:09:33;93053.00;;;13.27;63.08
11682;BME280;5897;42.640;23.310;2023-04-26T09:12:02;93049.44;;;13.21;63.21
11682;BME280;5897;42.640;23.310;2023-04-26T09:14:29;93054.91;;;13.36;62.41
11682;BME280;5897;42.640;23.310;2023-04-26T09:16:56;93057.47;;;13.54;61.12
11682;BME280;5897;42.640;23.310;2023-04-26T09:19:35;93064.91;;;13.68;60.05
11682;BME280;5897;42.640;23.310;2023-04-26T09:22:04;93067.84;;;13.41;59.75
11682;BME280;5897;42.640;23.310;2023-04-26T09:24:46;93065.53;;;13.25;62.07
11682;BME280;5897;42.640;23.310;2023-04-26T09:27:14;93059.66;;;13.26;59.90
11682;BME280;5897;42.640;23.310;2023-04-26T09:29:56;93064.56;;;13.51;60.84
11682;BME280;5897;42.640;23.310;2023-04-26T09:32:23;93058.78;;;13.58;62.53
11682;BME280;5897;42.640;23.310;2023-04-26T09:34:50;93038.59;;;13.74;60.51
11682;BME280;5897;42.640;23.310;2023-04-26T09:37:18;93062.38;;;14.08;60.05
11682;BME280;5897;42.640;23.310;2023-04-26T09:39:45;93065.28;;;14.48;59.53
11682;BME280;5897;42.640;23.310;2023-04-26T09:42:15;93060.03;;;14.59;58.91
11682;BME280;5897;42.640;23.310;2023-04-26T09:44:43;93054.03;;;14.55;55.60
11682;BME280;5897;42.640;23.310;2023-04-26T09:47:10;93057.56;;;14.61;55.51
11682;BME280;5897;42.640;23.310;2023-04-26T09:49:45;93048.59;;;14.55;56.82
11682;BME280;5897;42.640;23.310;2023-04-26T09:52:13;93049.28;;;14.70;54.21
11682;BME280;5897;42.640;23.310;2023-04-26T09:54:44;93052.44;;;14.83;55.28
11682;BME280;5897;42.640;23.310;2023-04-26T09:57:12;93051.59;;;14.91;56.99
11682;BME280;5897;42.640;23.310;2023-04-26T09:59:40;93044.50;;;14.99;56.07
11682;BME280;5897;42.640;23.310;2023-04-26T10:02:12;93040.47;;;15.49;56.01
11682;BME280;5897;42.640;23.310;2023-04-26T10:04:43;93038.19;;;15.68;52.25
11682;BME280;5897;42.640;23.310;2023-04-26T10:07:11;93037.16;;;15.65;51.76
11682;BME280;5897;42.640;23.310;2023-04-26T10:09:39;93049.22;;;15.59;53.32
11682;BME280;5897;42.640;23.310;2023-04-26T10:12:09;93043.03;;;15.58;52.72
11682;BME280;5897;42.640;23.310;2023-04-26T10:14:36;93044.94;;;15.52;53.69
11682;BME280;5897;42.640;23.310;2023-04-26T10:17:04;93029.81;;;15.51;51.20
11682;BME280;5897;42.640;23.310;2023-04-26T10:19:32;93017.66;;;15.27;53.13
11682;BME280;5897;42.640;23.310;2023-04-26T10:22:03;93031.75;;;15.25;51.44
11682;BME280;5897;42.640;23.310;2023-04-26T10:24:30;93032.00;;;15.27;52.33
11682;BME280;5897;42.640;23.310;2023-04-26T10:26:57;93031.91;;;15.36;52.87
11682;BME280;5897;42.640;23.310;2023-04-26T10:30:05;93035.13;;;15.20;50.75
11682;BME280;5897;42.640;23.310;2023-04-26T10:35:35;93025.06;;;15.26;52.06
11682;BME280;5897;42.640;23.310;2023-04-26T10:38:08;93041.19;;;15.10;50.63
11682;BME280;5897;42.640;23.310;2023-04-26T10:40:37;93042.19;;;14.92;50.35
11682;BME280;5897;42.640;23.310;2023-04-26T10:43:28;93042.69;;;15.11;50.98
11682;BME280;5897;42.640;23.310;2023-04-26T10:45:56;93024.13;;;15.09;51.04
11682;BME280;5897;42.640;23.310;2023-04-26T10:48:29;93042.25;;;14.98;49.16
11682;BME280;5897;42.640;23.310;2023-04-26T10:51:08;93040.34;;;14.84;49.73
11682;BME280;5897;42.640;23.310;2023-04-26T10:53:57;93029.16;;;14.62;50.39
11682;BME280;5897;42.640;23.310;2023-04-26T10:56:51;93029.00;;;14.85;49.49
11682;BME280;5897;42.640;23.310;2023-04-26T10:59:20;93025.25;;;15.03;49.41
11682;BME280;5897;42.640;23.310;2023-04-26T11:01:48;93017.44;;;15.10;48.23
11682;BME280;5897;42.640;23.310;2023-04-26T11:04:15;93034.44;;;14.85;48.16
11682;BME280;5897;42.640;23.310;2023-04-26T11:06:49;93029.22;;;14.82;47.85
11682;BME280;5897;42.640;23.310;2023-04-26T11:09:47;93030.84;;;14.94;48.10
11682;BME280;5897;42.640;23.310;2023-04-26T11:12:15;93032.50;;;15.06;48.70
11682;BME280;5897;42.640;23.310;2023-04-26T11:14:42;93033.91;;;15.01;47.49
11682;BME280;5897;42.640;23.310;2023-04-26T11:17:11;93035.13;;;15.00;47.23
11682;BME280;5897;42.640;23.310;2023-04-26T11:19:40;93030.44;;;15.01;47.64
11682;BME280;5897;42.640;23.310;2023-04-26T11:22:07;93007.31;;;14.91;48.64
11682;BME280;5897;42.640;23.310;2023-04-26T11:24:34;93034.78;;;15.13;48.83
11682;BME280;5897;42.640;23.310;2023-04-26T11:27:07;93028.00;;;15.23;46.91
11682;BME280;5897;42.640;23.310;2023-04-26T11:29:34;93029.31;;;15.07;46.17
11682;BME280;5897;42.640;23.310;2023-04-26T11:32:01;93034.91;;;14.84;47.91
11682;BME280;5897;42.640;23.310;2023-04-26T11:34:32;93032.47;;;14.86;47.26
11682;BME280;5897;42.640;23.310;2023-04-26T11:37:00;93027.44;;;14.79;46.25
11682;BME280;5897;42.640;23.310;2023-04-26T11:39:29;93035.53;;;14.93;48.89
11682;BME280;5897;42.640;23.310;2023-04-26T11:42:03;93035.41;;;15.02;48.61
11682;BME280;5897;42.640;23.310;2023-04-26T11:44:31;93030.69;;;14.83;47.93
11682;BME280;5897;42.640;23.310;2023-04-26T11:46:59;93034.88;;;14.64;48.66
11682;BME280;5897;42.640;23.310;2023-04-26T11:49:28;93034.69;;;14.67;50.13
11682;BME280;5897;42.640;23.310;2023-04-26T11:51:57;93037.13;;;14.65;49.51
11682;BME280;5897;42.640;23.310;2023-04-26T11:54:27;93025.22;;;14.63;48.28
11682;BME280;5897;42.640;23.310;2023-04-26T11:56:55;93034.66;;;14.82;47.31
11682;BME280;5897;42.640;23.310;2023-04-26T11:59:23;93028.41;;;15.16;45.85
11682;BME280;5897;42.640;23.310;2023-04-26T12:01:50;93031.06;;;15.30;45.24
11682;BME280;5897;42.640;23.310;2023-04-26T12:04:17;93026.97;;;15.60;46.39
11682;BME280;5897;42.640;23.310;2023-04-26T12:06:45;93022.38;;;15.72;44.62
11682;BME280;5897;42.640;23.310;2023-04-26T12:09:15;93015.00;;;15.78;44.31
11682;BME280;5897;42.640;23.310;2023-04-26T12:11:47;93017.91;;;15.69;45.12
11682;BME280;5897;42.640;23.310;2023-04-26T12:14:15;93020.06;;;15.65;44.23
11682;BME280;5897;42.640;23.310;2023-04-26T12:16:41;93022.50;;;15.37;44.93
11682;BME280;5897;42.640;23.310;2023-04-26T12:19:08;93026.28;;;15.05;45.99
11682;BME280;5897;42.640;23.310;2023-04-26T12:21:42;93022.22;;;14.61;47.48
11682;BME280;5897;42.640;23.310;2023-04-26T12:24:25;93033.00;;;14.55;47.63
11682;BME280;5897;42.640;23.310;2023-04-26T12:26:54;93022.69;;;14.59;47.11
11682;BME280;5897;42.640;23.310;2023-04-26T12:29:21;93014.44;;;14.68;47.62
11682;BME280;5897;42.640;23.310;2023-04-26T12:31:47;93018.13;;;14.85;46.24
11682;BME280;5897;42.640;23.310;2023-04-26T12:34:14;93014.00;;;15.10;46.27
11682;BME280;5897;42.640;23.310;2023-04-26T12:36:41;93010.66;;;15.20;45.57
11682;BME280;5897;42.640;23.310;2023-04-26T12:39:09;93004.75;;;15.22;45.07
11682;BME280;5897;42.640;23.310;2023-04-26T12:41:39;93008.28;;;15.28;46.47
11682;BME280;5897;42.640;23.310;2023-04-26T12:44:06;92978.22;;;14.97;44.99
11682;BME280;5897;42.640;23.310;2023-04-26T12:46:33;93013.38;;;14.80;45.88
11682;BME280;5897;42.640;23.310;2023-04-26T12:49:00;93018.56;;;14.64;48.68
11682;BME280;5897;42.640;23.310;2023-04-26T12:51:28;93009.22;;;14.65;49.14
11682;BME280;5897;42.640;23.310;2023-04-26T12:53:56;93000.91;;;14.74;49.14
11682;BME280;5897;42.640;23.310;2023-04-26T12:56:23;93010.59;;;14.95;49.11
11682;BME280;5897;42.640;23.310;2023-04-26T12:58:51;93024.31;;;15.06;48.06
11682;BME280;5897;42.640;23.310;2023-04-26T13:01:18;93010.31;;;15.13;46.43
11682;BME280;5897;42.640;23.310;2023-04-26T13:03:45;93011.47;;;15.06;45.64
11682;BME280;5897;42.640;23.310;2023-04-26T13:06:12;93013.63;;;14.82;46.29
11682;BME280;5897;42.640;23.310;2023-04-26T13:08:39;93029.81;;;14.57;48.08